Time;durP1;ratioP1;P1;durP2;ratioP2;P2;SDS_P1;SDS_P2;PMS_P1;PMS_P2;Temp;Humidity;BMP_temperature;BMP_pressure;BME280_temperature;BME280_humidity;BME280_pressure;Samples;Min_cycle;Max_cycle;Signal;HPM_P1;HPM_P2
2023/10/08 01:44:09;;;;;;;;;;;;;;;;;;;;;
2023/10/08 02:59:21;;;;;;;10.50;5.50;;;11.20;99.90;;;;;;6171755;23;20808;-86
2023/10/08 03:01:49;;;;;;;9.93;4.63;;;;;;;;;;6195186;23;20414;-86
2023/10/08 03:04:22;;;;;;;8.97;5.33;;;;;;;;;;6195830;23;20446;-86
2023/10/08 03:06:52;;;;;;;10.30;5.00;;;;;;;;;;6202883;23;20758;-86
2023/10/08 03:09:26;;;;;;;8.30;5.67;;;;;;;;;;6206515;23;20427;-86
2023/10/08 03:11:53;;;;;;;14.57;5.03;;;11.60;99.90;;;;;;6208734;23;20415;-85
2023/10/08 08:07:59;;;;;;;3.67;1.93;;;11.60;99.90;;;;;;6158308;23;20430;-87
2023/10/08 08:10:57;;;;;;;1.70;1.40;;;11.50;99.90;;;;;;6166200;23;20408;-87
2023/10/08 08:20:34;;;;;;;4.17;1.60;;;11.20;99.90;;;;;;6160000;23;20416;-87
2023/10/08 08:23:46;;;;;;;;;;;;;;;;;;;;;
2023/10/08 08:42:21;;;;;;;1.83;1.30;;;12.10;1.00;;;;;;6059074;23;20450;-88
2023/10/08 08:45:08;;;;;;;1.70;1.40;;;12.00;1.00;;;;;;6041132;23;20503;-87
2023/10/08 08:55:27;;;;;;;1.30;1.13;;;12.10;99.90;;;;;;5980260;24;20425;-87
2023/10/08 11:24:25;;;;;;;2.03;1.27;;;14.00;99.90;;;;;;5963353;23;20517;-87
2023/10/08 12:35:12;;;;;;;3.10;1.93;;;14.00;99.90;;;;;;6201820;23;20403;-85
2023/10/08 12:37:39;;;;;;;2.10;1.73;;;14.70;99.90;;;;;;6194835;23;20427;-86
2023/10/08 12:40:12;;;;;;;1.00;0.80;;;14.70;99.90;;;;;;6193256;23;20491;-87
2023/10/08 12:42:39;;;;;;;1.87;0.93;;;14.90;1.00;;;;;;6189161;23;20427;-86
2023/10/08 12:45:12;;;;;;;1.60;1.17;;;15.20;1.00;;;;;;6166850;23;20391;-85
2023/10/08 12:47:39;;;;;;;1.43;1.33;;;14.80;99.90;;;;;;6184902;23;20392;-84
2023/10/08 12:50:07;;;;;;;3.33;1.50;;;14.90;99.90;;;;;;6184590;23;20415;-85
2023/10/08 12:52:35;;;;;;;2.47;1.60;;;14.80;1.00;;;;;;6173439;23;20428;-86
2023/10/08 12:55:04;;;;;;;2.70;2.03;;;15.20;1.00;;;;;;6164069;23;20502;-87
2023/10/08 12:57:34;;;;;;;1.37;1.27;;;15.00;99.90;;;;;;6166935;23;20440;-87
2023/10/08 13:00:03;;;;;;;1.20;1.10;;;15.10;99.90;;;;;;6184564;23;20424;-86
2023/10/08 13:02:31;;;;;;;1.80;1.00;;;15.10;1.00;;;;;;6184070;23;20399;-86
2023/10/08 13:04:59;;;;;;;3.50;1.13;;;15.20;99.90;;;;;;6184434;23;20431;-85
2023/10/08 13:07:26;;;;;;;1.53;1.43;;;15.10;99.90;;;;;;6183683;23;20408;-85
2023/10/08 13:09:53;;;;;;;1.63;1.40;;;14.60;99.90;;;;;;6177394;23;20435;-85
2023/10/08 13:12:20;;;;;;;1.43;1.30;;;14.60;99.90;;;;;;6182549;23;20461;-87
2023/10/08 13:14:47;;;;;;;1.47;1.00;;;15.10;1.00;;;;;;6165201;23;20487;-86
2023/10/08 13:17:14;;;;;;;1.50;1.40;;;14.80;99.90;;;;;;6165832;23;20435;-87
2023/10/08 13:19:45;;;;;;;1.90;1.27;;;14.90;99.90;;;;;;6164308;23;20397;-87
2023/10/08 13:22:19;;;;;;;1.60;1.10;;;15.00;99.90;;;;;;6163999;23;20420;-86
2023/10/08 13:24:48;;;;;;;1.37;1.10;;;14.90;99.90;;;;;;6164091;23;20448;-87
2023/10/08 13:27:16;;;;;;;1.73;1.30;;;14.90;99.90;;;;;;6160706;23;20404;-87
2023/10/08 13:29:43;;;;;;;1.20;0.90;;;;;;;;;;6160881;23;20415;-87
2023/10/08 13:32:17;;;;;;;4.37;3.10;;;15.00;99.90;;;;;;6160747;23;20418;-86
2023/10/08 13:34:45;;;;;;;2.17;1.17;;;14.50;1.00;;;;;;6160249;23;20954;-86
2023/10/08 13:37:14;;;;;;;3.37;2.53;;;14.80;99.90;;;;;;6160500;23;20483;-86
2023/10/08 13:39:42;;;;;;;3.80;2.37;;;14.80;99.90;;;;;;6160599;23;20743;-86
2023/10/08 13:42:16;;;;;;;1.90;1.10;;;14.80;99.90;;;;;;6160894;23;20636;-86
2023/10/08 13:44:45;;;;;;;4.13;2.07;;;14.50;1.00;;;;;;6159495;23;20514;-86
2023/10/08 13:47:15;;;;;;;2.90;2.10;;;;;;;;;;6161594;23;20495;-87
2023/10/08 13:49:42;;;;;;;1.60;1.20;;;14.40;1.00;;;;;;6160001;23;20420;-85
2023/10/08 13:52:11;;;;;;;1.20;0.90;;;14.40;1.00;;;;;;6159710;23;20423;-84
2023/10/08 13:54:41;;;;;;;2.37;1.03;;;14.60;99.90;;;;;;6160954;23;20424;-84
2023/10/08 13:57:09;;;;;;;1.37;1.07;;;14.50;99.90;;;;;;6173091;23;20443;-83
2023/10/08 13:59:38;;;;;;;1.70;1.17;;;14.50;99.90;;;;;;6177306;23;20479;-83
2023/10/08 14:02:14;;;;;;;3.03;1.00;;;14.60;1.00;;;;;;6171953;23;20426;-87
2023/10/08 14:04:43;;;;;;;2.80;1.20;;;14.60;99.90;;;;;;6166895;23;20491;-88
2023/10/08 14:07:16;;;;;;;2.00;1.77;;;14.70;99.90;;;;;;6166231;23;20446;-88
2023/10/08 14:09:45;;;;;;;5.17;3.80;;;14.80;99.90;;;;;;6165961;23;20408;-87
2023/10/08 14:12:13;;;;;;;1.33;1.23;;;14.70;1.00;;;;;;6163753;23;20475;-87
2023/10/08 14:14:43;;;;;;;3.53;2.27;;;14.60;99.90;;;;;;6161458;23;20436;-87
2023/10/08 14:17:16;;;;;;;1.67;1.40;;;14.60;99.90;;;;;;6163827;23;20401;-88
2023/10/08 14:19:59;;;;;;;2.00;1.70;;;14.60;1.00;;;;;;6160405;23;20430;-89
2023/10/08 14:25:50;;;;;;;3.10;2.20;;;;;;;;;;6158321;23;20416;-89
2023/10/08 14:28:40;;;;;;;12.10;8.00;;;14.30;99.90;;;;;;6163609;23;20502;-89
2023/10/08 14:46:32;;;;;;;;;;;;;;;;;;;;;
2023/10/08 14:49:54;;;;;;;2.80;1.27;;;14.40;99.90;;;;;;6183063;23;20470;-88
2023/10/08 14:56:28;;;;;;;2.73;1.70;;;14.40;99.90;;;;;;6051345;23;20467;-90
2023/10/08 15:02:29;;;;;;;1.53;1.33;;;14.20;1.00;;;;;;6161681;23;20874;-89
2023/10/08 15:04:57;;;;;;;3.37;2.30;;;;;;;;;;6170353;23;20431;-86
2023/10/08 15:07:25;;;;;;;2.13;1.90;;;;;;;;;;6183033;23;20467;-87
2023/10/08 15:10:00;;;;;;;2.10;1.37;;;14.30;99.90;;;;;;6183436;23;20424;-87
2023/10/08 15:12:34;;;;;;;2.37;1.60;;;14.20;99.90;;;;;;6182461;23;20372;-86
2023/10/08 15:15:12;;;;;;;1.63;1.10;;;;;;;;;;6179967;23;20396;-86
2023/10/08 15:17:48;;;;;;;3.97;2.17;;;14.40;99.90;;;;;;6180592;23;20403;-87
2023/10/08 15:20:17;;;;;;;1.60;1.23;;;14.20;99.90;;;;;;6185737;23;20414;-85
2023/10/08 15:23:00;;;;;;;2.57;1.53;;;14.30;99.90;;;;;;6185707;23;20403;-85
2023/10/08 15:25:27;;;;;;;1.20;0.90;;;;;;;;;;6179585;23;20380;-87
2023/10/08 15:27:55;;;;;;;3.00;1.23;;;;;;;;;;6172639;23;21102;-86
2023/10/08 15:30:25;;;;;;;1.97;1.43;;;;;;;;;;6172357;23;20408;-88
2023/10/08 15:32:55;;;;;;;1.23;1.13;;;14.20;99.90;;;;;;6185017;23;20420;-85
2023/10/08 15:35:24;;;;;;;2.87;1.70;;;;;;;;;;6185116;23;20438;-87
2023/10/08 15:37:51;;;;;;;3.73;1.90;;;13.80;1.00;;;;;;6180405;23;20408;-87
2023/10/08 15:40:30;;;;;;;1.50;1.30;;;13.90;1.00;;;;;;6171285;23;20408;-88
2023/10/08 15:45:39;;;;;;;2.40;1.60;;;;;;;;;;6169166;23;20419;-86
2023/10/08 15:48:10;;;;;;;4.23;2.60;;;13.50;99.90;;;;;;6168460;23;20440;-86
2023/10/08 15:50:38;;;;;;;6.90;3.20;;;;;;;;;;6168083;23;20477;-87
2023/10/08 15:53:07;;;;;;;5.00;2.43;;;;;;;;;;6165398;23;20415;-87
2023/10/08 15:55:33;;;;;;;2.87;1.67;;;13.90;99.90;;;;;;6167979;23;20446;-87
2023/10/08 15:58:00;;;;;;;3.57;1.70;;;14.00;99.90;;;;;;6166490;23;20488;-87
2023/10/08 16:00:28;;;;;;;5.07;1.70;;;13.90;99.90;;;;;;6166224;23;20921;-88
2023/10/08 16:02:54;;;;;;;2.70;1.80;;;13.80;99.90;;;;;;6164595;23;20455;-87
2023/10/08 16:05:23;;;;;;;2.03;1.40;;;14.00;99.90;;;;;;6163027;23;20454;-87
2023/10/08 16:07:49;;;;;;;1.43;1.33;;;14.00;99.90;;;;;;6165839;23;20961;-87
2023/10/08 16:10:17;;;;;;;1.23;1.13;;;14.00;99.90;;;;;;6170459;23;20415;-87
2023/10/08 16:12:44;;;;;;;4.10;2.37;;;13.90;1.00;;;;;;6170686;23;20393;-87
2023/10/08 16:15:11;;;;;;;2.60;1.93;;;14.00;1.00;;;;;;6165572;23;20422;-86
2023/10/08 16:17:40;;;;;;;1.60;1.50;;;14.10;1.00;;;;;;6166011;23;20407;-86
2023/10/08 16:20:13;;;;;;;3.07;1.70;;;14.00;1.00;;;;;;6165800;23;20909;-87
2023/10/08 16:22:42;;;;;;;4.90;3.10;;;13.60;1.00;;;;;;6165384;23;20415;-86
2023/10/08 16:25:14;;;;;;;1.63;1.30;;;13.70;99.90;;;;;;6165146;23;20422;-86
2023/10/08 16:27:47;;;;;;;2.77;1.90;;;13.80;1.00;;;;;;6168148;23;20484;-87
2023/10/08 16:30:17;;;;;;;4.67;3.40;;;13.80;1.00;;;;;;6179362;23;20412;-89
2023/10/08 16:33:18;;;;;;;4.83;4.33;;;13.60;99.90;;;;;;6183720;23;20412;-87
2023/10/08 16:35:59;;;;;;;3.53;2.50;;;;;;;;;;6183252;23;20399;-87
2023/10/08 16:38:46;;;;;;;2.83;2.00;;;13.50;99.90;;;;;;6182482;23;20404;-87
2023/10/08 16:41:13;;;;;;;2.57;1.90;;;;;;;;;;6177787;23;20428;-87
2023/10/08 16:44:01;;;;;;;2.40;1.77;;;13.70;1.00;;;;;;6171762;23;20432;-88
2023/10/08 16:46:51;;;;;;;3.97;2.03;;;13.70;1.00;;;;;;6171771;23;20405;-87
2023/10/08 16:49:28;;;;;;;4.47;3.20;;;;;;;;;;6155527;23;20227;-87
2023/10/08 16:54:43;;;;;;;5.30;2.53;;;13.50;99.90;;;;;;6169375;23;20424;-87
2023/10/08 16:57:26;;;;;;;6.50;3.37;;;13.80;99.90;;;;;;6184602;23;20408;-86
2023/10/08 17:00:20;;;;;;;6.53;2.87;;;13.40;99.90;;;;;;6181507;23;20380;-88
2023/10/08 17:03:03;;;;;;;5.27;3.73;;;13.40;99.90;;;;;;6175191;23;20479;-88
2023/10/08 17:05:36;;;;;;;4.97;3.70;;;13.30;99.90;;;;;;6169878;23;20463;-87
2023/10/08 17:08:12;;;;;;;3.00;2.70;;;13.30;99.90;;;;;;6169408;23;20443;-88
2023/10/08 17:10:47;;;;;;;3.10;2.50;;;13.40;99.90;;;;;;6167887;23;20380;-87
2023/10/08 17:13:22;;;;;;;3.80;2.20;;;13.40;99.90;;;;;;6173421;23;20438;-87
2023/10/08 17:15:55;;;;;;;2.30;2.07;;;;;;;;;;6184636;23;20360;-86
2023/10/08 17:18:49;;;;;;;5.37;2.87;;;13.40;99.90;;;;;;6182313;23;20476;-86
2023/10/08 17:21:28;;;;;;;8.40;7.60;;;;;;;;;;6175439;23;20434;-88
2023/10/08 17:24:13;;;;;;;3.40;2.60;;;13.40;99.90;;;;;;6171654;23;20859;-88
2023/10/08 17:27:06;;;;;;;4.00;2.37;;;13.30;99.90;;;;;;6170317;23;20410;-89
2023/10/08 19:26:07;;;;;;;8.33;5.80;;;12.10;99.90;;;;;;6175300;23;20790;-90
2023/10/08 19:28:44;;;;;;;6.47;5.30;;;12.20;1.00;;;;;;6196222;23;20489;-89
2023/10/08 19:31:13;;;;;;;5.93;5.40;;;;;;;;;;6195001;23;20437;-91
2023/10/08 19:33:41;;;;;;;8.13;5.83;;;12.20;1.00;;;;;;6194794;23;20502;-90
2023/10/08 19:36:09;;;;;;;6.00;5.20;;;;;;;;;;6193774;23;20426;-90
2023/10/08 19:38:36;;;;;;;12.20;6.93;;;10.80;1.00;;;;;;6194550;23;20410;-89
2023/10/08 19:41:05;;;;;;;6.37;5.70;;;12.10;1.00;;;;;;6199018;23;20407;-90
2023/10/08 19:43:32;;;;;;;6.17;5.57;;;12.40;99.90;;;;;;6205569;23;20391;-90
2023/10/08 19:45:59;;;;;;;6.63;5.40;;;;;;;;;;6205634;23;20431;-90
2023/10/08 19:48:27;;;;;;;8.10;6.07;;;12.10;1.00;;;;;;6206722;23;20423;-89
2023/10/08 19:50:55;;;;;;;7.80;6.27;;;;;;;;;;6201798;23;20451;-90
2023/10/08 19:53:22;;;;;;;9.83;5.80;;;;;;;;;;6196399;23;20407;-89
2023/10/08 19:55:51;;;;;;;9.93;6.77;;;12.00;1.00;;;;;;6198380;23;20441;-91
2023/10/08 19:58:20;;;;;;;10.17;6.50;;;12.00;1.00;;;;;;6212871;23;20395;-91
2023/10/08 20:00:49;;;;;;;16.57;9.20;;;11.80;99.90;;;;;;6213627;23;20388;-91
2023/10/08 20:03:19;;;;;;;9.17;6.60;;;11.90;1.00;;;;;;6213002;23;20398;-90
2023/10/08 20:05:47;;;;;;;8.87;7.00;;;;;;;;;;6198719;23;20450;-90
2023/10/08 20:08:15;;;;;;;10.63;6.57;;;11.90;1.00;;;;;;6197512;23;20446;-89
2023/10/08 20:10:43;;;;;;;10.50;6.20;;;;;;;;;;6194533;23;20410;-90
2023/10/08 20:13:12;;;;;;;7.10;6.20;;;;;;;;;;6193722;23;20406;-90
2023/10/08 20:15:42;;;;;;;5.67;4.87;;;11.90;1.00;;;;;;6204361;23;20435;-91
2023/10/08 20:18:10;;;;;;;6.97;5.20;;;;;;;;;;6198888;23;20490;-90
2023/10/08 20:20:41;;;;;;;8.23;5.70;;;11.50;99.90;;;;;;6196344;23;20415;-91
2023/10/08 20:23:10;;;;;;;10.60;5.77;;;;;;;;;;6197642;23;20407;-91
2023/10/08 20:25:46;;;;;;;7.30;6.10;;;11.90;1.00;;;;;;6196620;23;20454;-91
2023/10/08 20:28:40;;;;;;;5.70;4.70;;;12.00;1.00;;;;;;6171209;23;20471;-92
2023/10/08 20:31:15;;;;;;;5.40;4.50;;;11.90;1.00;;;;;;6151510;23;20423;-92
2023/10/08 20:33:43;;;;;;;5.70;4.40;;;;;;;;;;6183660;23;20415;-91
2023/10/08 20:36:14;;;;;;;5.07;4.57;;;11.90;99.90;;;;;;6183704;23;20415;-91
2023/10/08 20:38:42;;;;;;;4.33;3.90;;;;;;;;;;6179008;23;20415;-90
2023/10/08 20:41:16;;;;;;;6.10;4.50;;;11.90;1.00;;;;;;6172575;23;20425;-90
2023/10/08 20:43:47;;;;;;;7.07;5.57;;;;;;;;;;6174367;23;20423;-90
2023/10/08 20:46:21;;;;;;;4.50;4.10;;;11.80;1.00;;;;;;6172958;23;20857;-90
2023/10/08 20:48:50;;;;;;;5.30;4.70;;;11.70;1.00;;;;;;6170143;23;20436;-92
2023/10/08 20:51:18;;;;;;;4.90;3.70;;;;;;;;;;6171434;23;20447;-90
2023/10/08 20:53:45;;;;;;;8.87;5.27;;;;;;;;;;6167613;23;20408;-90
2023/10/08 20:56:13;;;;;;;4.33;3.93;;;;;;;;;;6170295;23;20809;-90
2023/10/08 20:58:43;;;;;;;5.77;4.33;;;;;;;;;;6167021;23;20416;-91
2023/10/08 21:01:11;;;;;;;5.30;3.70;;;;;;;;;;6166569;23;20420;-92
2023/10/08 21:03:45;;;;;;;7.33;5.20;;;11.90;1.00;;;;;;6166135;23;20404;-91
2023/10/08 21:06:19;;;;;;;4.73;4.00;;;11.70;99.90;;;;;;6164914;23;20435;-92
2023/10/08 21:08:46;;;;;;;4.83;4.37;;;12.00;1.00;;;;;;6163011;23;20930;-92
2023/10/08 21:11:24;;;;;;;4.03;3.70;;;12.00;1.00;;;;;;6162755;23;20456;-91
2023/10/08 21:13:52;;;;;;;6.83;4.30;;;;;;;;;;6165305;23;20427;-92
2023/10/08 21:16:21;;;;;;;6.80;4.60;;;;;;;;;;6162705;23;20423;-90
2023/10/08 21:18:50;;;;;;;8.17;4.90;;;12.00;1.00;;;;;;6164175;23;20415;-91
2023/10/08 21:21:22;;;;;;;6.23;5.30;;;12.00;1.00;;;;;;6163593;23;20941;-91
2023/10/08 21:23:50;;;;;;;5.07;4.23;;;;;;;;;;6164812;23;20396;-90
2023/10/08 21:26:32;;;;;;;5.63;5.13;;;11.90;1.00;;;;;;6166325;23;20440;-91
2023/10/08 21:29:13;;;;;;;5.57;3.90;;;11.90;1.00;;;;;;6173469;23;20427;-93
2023/10/08 21:32:00;;;;;;;5.97;4.00;;;11.90;1.00;;;;;;6184903;23;20475;-92
2023/10/08 21:34:30;;;;;;;4.77;3.90;;;11.80;1.00;;;;;;6179038;23;20487;-91
2023/10/08 21:36:57;;;;;;;10.90;4.13;;;11.80;99.90;;;;;;6164850;23;20522;-90
2023/10/08 21:39:25;;;;;;;4.27;3.33;;;;;;;;;;6164994;23;20408;-92
2023/10/08 21:41:56;;;;;;;4.27;3.43;;;;;;;;;;6166602;23;20478;-91
2023/10/08 21:44:24;;;;;;;8.17;3.07;;;;;;;;;;6171235;23;20416;-91
2023/10/08 21:46:51;;;;;;;6.73;4.00;;;;;;;;;;6165041;23;20965;-91
2023/10/08 21:49:18;;;;;;;5.20;3.10;;;;;;;;;;6163945;23;20439;-91
2023/10/08 21:51:52;;;;;;;4.27;3.50;;;11.60;1.00;;;;;;6164017;23;20435;-91
2023/10/08 21:54:19;;;;;;;5.63;4.03;;;;;;;;;;6169590;23;20424;-91
2023/10/08 21:56:47;;;;;;;5.43;3.40;;;;;;;;;;6184192;23;20397;-91
2023/10/08 21:59:14;;;;;;;3.77;3.47;;;11.50;1.00;;;;;;6184985;23;20384;-91
2023/10/08 22:01:42;;;;;;;3.40;3.10;;;11.70;1.00;;;;;;6184828;23;20392;-92
2023/10/08 22:04:11;;;;;;;5.43;4.80;;;;;;;;;;6184821;23;20396;-91
2023/10/08 22:06:38;;;;;;;5.27;3.70;;;;;;;;;;6184629;23;20428;-91
2023/10/08 22:09:11;;;;;;;6.70;3.53;;;11.60;1.00;;;;;;6163701;23;20440;-91
2023/10/08 22:11:39;;;;;;;4.67;3.10;;;11.50;1.00;;;;;;6162775;23;20413;-91
2023/10/08 22:14:11;;;;;;;4.87;2.70;;;11.50;1.00;;;;;;6174689;23;20401;-91
2023/10/08 22:16:40;;;;;;;4.43;3.13;;;11.50;1.00;;;;;;6174984;23;20420;-92
2023/10/08 22:19:25;;;;;;;3.07;2.70;;;11.50;1.00;;;;;;6168116;23;20452;-91
2023/10/08 22:22:06;;;;;;;3.03;2.73;;;11.40;99.90;;;;;;6173984;23;20392;-91
2023/10/08 22:24:55;;;;;;;3.30;3.00;;;11.60;1.00;;;;;;6170452;23;20420;-91
2023/10/08 22:27:57;;;;;;;5.50;3.20;;;11.60;1.00;;;;;;6182699;23;20444;-91
2023/10/08 22:30:35;;;;;;;2.77;2.57;;;11.50;1.00;;;;;;6165687;23;20511;-91
2023/10/08 22:33:06;;;;;;;2.57;2.37;;;;;;;;;;6166987;23;20397;-90
2023/10/08 22:35:58;;;;;;;5.33;3.37;;;11.80;1.00;;;;;;6175499;23;20488;-90
2023/10/08 22:38:55;;;;;;;3.63;2.80;;;11.60;1.00;;;;;;6183634;23;20445;-91
2023/10/08 22:41:54;;;;;;;2.97;2.70;;;11.70;1.00;;;;;;6183868;23;20405;-91
2023/10/08 22:44:22;;;;;;;3.43;2.30;;;;;;;;;;6169277;23;20445;-91
2023/10/08 22:47:21;;;;;;;3.30;2.70;;;11.50;1.00;;;;;;6213963;23;20414;-91
2023/10/08 22:49:53;;;;;;;2.70;2.50;;;;;;;;;;6214002;23;20442;-91
2023/10/08 22:52:21;;;;;;;2.80;2.53;;;11.50;99.90;;;;;;6214121;23;20383;-91
2023/10/08 22:54:51;;;;;;;3.27;2.23;;;;;;;;;;6213983;23;20399;-91
2023/10/08 22:57:21;;;;;;;3.50;2.70;;;11.50;1.00;;;;;;6214093;23;20495;-92
